Time;durP1;ratioP1;P1;durP2;ratioP2;P2;SDS_P1;SDS_P2;PMS_P1;PMS_P2;Temp;Humidity;BMP_temperature;BMP_pressure;BME280_temperature;BME280_humidity;BME280_pressure;Samples;Min_cycle;Max_cycle;Signal;HPM_P1;HPM_P2
2022/05/10 00:00:07;;;;;;;11.50;10.40;;;;;;;;;;5074993;28;20884;-65
2022/05/10 00:02:34;;;;;;;12.33;11.00;;;;;;;;;;5075138;28;20883;-64
2022/05/10 00:05:00;;;;;;;11.97;10.80;;;;;;;;;;5057150;28;20907;-64
2022/05/10 00:07:28;;;;;;;14.10;11.07;;;;;;;;;;5074864;28;20816;-64
2022/05/10 00:09:54;;;;;;;11.90;10.70;;;;;;;;;;5074853;28;20771;-63
2022/05/10 00:12:20;;;;;;;12.43;11.13;;;;;;;;;;5074660;28;20824;-67
2022/05/10 00:14:46;;;;;;;12.13;10.87;;;;;;;;;;5074636;28;20428;-65
2022/05/10 00:17:19;;;;;;;12.10;10.73;;;;;;;;;;5074684;28;20468;-64
2022/05/10 00:19:45;;;;;;;12.50;11.30;;;;;;;;;;5074777;28;20412;-65
2022/05/10 00:22:11;;;;;;;15.70;10.77;;;;;;;;;;5074589;28;20425;-65
2022/05/10 00:24:37;;;;;;;13.33;11.93;;;;;;;;;;5074666;28;20492;-67
2022/05/10 00:27:04;;;;;;;13.60;11.30;;;;;;;;;;5074404;28;20582;-64
2022/05/10 00:29:30;;;;;;;13.37;11.97;;;;;;;;;;5074598;28;20435;-64
2022/05/10 00:31:56;;;;;;;20.40;12.70;;;;;;;;;;5074410;28;20911;-64
2022/05/10 00:34:22;;;;;;;15.30;11.83;;;;;;;;;;5056469;28;20511;-65
2022/05/10 00:36:48;;;;;;;13.70;12.30;;;;;;;;;;5073461;28;20475;-64
2022/05/10 00:39:14;;;;;;;13.87;12.37;;;;;;;;;;5074291;28;20405;-65
2022/05/10 00:41:58;;;;;;;13.97;12.07;;;;;;;;;;5074283;28;20418;-64
2022/05/10 00:44:32;;;;;;;13.37;11.80;;;;;;;;;;5074074;28;20507;-64
2022/05/10 00:47:22;;;;;;;11.80;10.60;;;;;;;;;;5074258;28;20397;-65
2022/05/10 00:49:51;;;;;;;18.43;12.20;;;;;;;;;;5061344;28;20495;-64
2022/05/10 00:52:20;;;;;;;18.50;12.70;;;;;;;;;;5074117;28;20416;-65
2022/05/10 00:55:01;;;;;;;13.10;11.30;;;;;;;;;;5073809;28;20482;-64
2022/05/10 00:57:45;;;;;;;14.10;11.87;;;;;;;;;;5073845;28;20471;-67
2022/05/10 01:00:17;;;;;;;14.13;11.27;;;;;;;;;;5073936;28;20550;-69
2022/05/10 01:02:55;;;;;;;14.00;11.10;;;;;;;;;;5073779;28;20407;-65
2022/05/10 01:05:33;;;;;;;12.57;11.30;;;;;;;;;;5073832;28;20413;-64
2022/05/10 01:08:02;;;;;;;12.30;11.10;;;;;;;;;;5073617;28;20452;-65
2022/05/10 01:10:32;;;;;;;13.23;11.57;;;;;;;;;;5073668;28;20441;-64
2022/05/10 01:13:03;;;;;;;12.23;11.00;;;;;;;;;;5073564;28;20958;-64
2022/05/10 01:15:31;;;;;;;12.90;11.63;;;;;;;;;;5073486;28;20891;-63
2022/05/10 01:17:58;;;;;;;14.30;12.33;;;;;;;;;;5073574;28;20428;-64
2022/05/10 01:20:28;;;;;;;12.30;11.00;;;;;;;;;;5073452;28;20517;-63
2022/05/10 01:23:13;;;;;;;13.70;11.33;;;;;;;;;;5073587;28;20752;-64
2022/05/10 01:25:48;;;;;;;12.73;11.40;;;;;;;;;;5073446;28;20420;-63
2022/05/10 01:28:23;;;;;;;12.60;11.30;;;;;;;;;;5073360;28;20439;-64
2022/05/10 01:30:49;;;;;;;12.67;11.10;;;;;;;;;;5073369;28;20408;-63
2022/05/10 01:33:31;;;;;;;14.13;11.90;;;;;;;;;;5073210;28;20417;-64
2022/05/10 01:35:57;;;;;;;16.10;10.70;;;;;;;;;;5073117;28;20460;-65
2022/05/10 01:38:40;;;;;;;13.13;11.73;;;;;;;;;;5073387;28;20412;-63
2022/05/10 01:41:26;;;;;;;12.93;11.00;;;;;;;;;;5073367;28;20392;-65
2022/05/10 01:43:52;;;;;;;16.43;11.30;;;;;;;;;;5056233;28;20474;-64
2022/05/10 01:46:21;;;;;;;14.20;11.90;;;;;;;;;;5073275;28;20424;-65
2022/05/10 01:48:50;;;;;;;11.90;10.70;;;;;;;;;;5073096;28;20424;-64
2022/05/10 01:51:21;;;;;;;12.30;10.40;;;;;;;;;;5073196;28;21001;-66
2022/05/10 01:53:47;;;;;;;12.27;11.07;;;;;;;;;;5073295;28;20405;-67
2022/05/10 01:56:18;;;;;;;13.30;10.93;;;;;;;;;;5073082;28;20550;-63
2022/05/10 01:58:45;;;;;;;12.50;10.50;;;;;;;;;;5073084;28;20428;-65
2022/05/10 02:01:14;;;;;;;12.23;10.63;;;;;;;;;;5073119;28;20887;-65
2022/05/10 02:03:42;;;;;;;12.57;10.47;;;;;;;;;;5072918;28;20423;-64
2022/05/10 02:06:19;;;;;;;14.17;11.03;;;;;;;;;;5072818;28;20412;-64
2022/05/10 02:08:58;;;;;;;11.13;9.93;;;;;;;;;;5072960;28;20934;-65
2022/05/10 02:11:24;;;;;;;13.53;10.87;;;;;;;;;;5072895;28;20428;-63
2022/05/10 02:14:03;;;;;;;13.40;10.80;;;;;;;;;;5072361;28;20416;-64
2022/05/10 02:16:47;;;;;;;11.23;10.13;;;;;;;;;;5072501;28;20456;-64
2022/05/10 02:19:13;;;;;;;13.03;11.60;;;;;;;;;;5072695;28;20427;-71
2022/05/10 02:21:44;;;;;;;13.87;11.77;;;;;;;;;;5072880;28;20392;-68
2022/05/10 02:24:17;;;;;;;14.07;11.80;;;;;;;;;;5072582;28;20446;-69
2022/05/10 02:26:47;;;;;;;15.63;11.63;;;;;;;;;;5072801;28;20405;-67
2022/05/10 02:29:20;;;;;;;11.90;10.70;;;;;;;;;;5072768;28;20576;-68
2022/05/10 02:34:34;;;;;;;13.67;11.70;;;;;;;;;;5072895;28;20404;-65
2022/05/10 02:37:01;;;;;;;12.13;10.60;;;;;;;;;;5072437;28;20480;-63
2022/05/10 02:39:27;;;;;;;12.97;11.27;;;;;;;;;;5072697;28;20488;-64
2022/05/10 02:41:53;;;;;;;12.50;11.20;;;;;;;;;;5072754;28;20440;-64
2022/05/10 02:44:19;;;;;;;15.33;12.23;;;;;;;;;;5072639;28;20440;-64
2022/05/10 02:46:45;;;;;;;12.23;10.80;;;;;;;;;;5072641;28;20420;-64
2022/05/10 02:49:11;;;;;;;12.37;11.00;;;;;;;;;;5072557;28;20408;-63
2022/05/10 02:51:37;;;;;;;12.03;10.77;;;;;;;;;;5072577;28;20413;-64
2022/05/10 02:54:03;;;;;;;12.80;11.50;;;;;;;;;;5072439;28;20469;-64
2022/05/10 02:56:30;;;;;;;13.80;11.40;;;;;;;;;;5072408;28;20537;-64
2022/05/10 02:59:14;;;;;;;13.40;12.00;;;;;;;;;;5072431;28;20442;-65
2022/05/10 03:01:46;;;;;;;14.03;11.60;;;;;;;;;;5076154;28;20400;-67
2022/05/10 03:04:13;;;;;;;12.07;10.57;;;;;;;;;;5076044;28;20412;-64
2022/05/10 03:06:40;;;;;;;12.77;11.47;;;;;;;;;;5076010;28;20455;-64
2022/05/10 03:09:07;;;;;;;16.10;12.13;;;;;;;;;;5076101;28;20420;-65
2022/05/10 03:11:35;;;;;;;12.53;11.10;;;;;;;;;;5076352;28;20886;-64
2022/05/10 03:14:01;;;;;;;12.63;11.30;;;;;;;;;;5075798;28;20483;-64
2022/05/10 03:16:27;;;;;;;12.70;11.40;;;;;;;;;;5075846;28;20554;-64
2022/05/10 03:18:54;;;;;;;13.60;11.23;;;;;;;;;;5075902;28;20780;-65
2022/05/10 03:21:20;;;;;;;12.10;10.77;;;;;;;;;;5075695;28;20788;-64
2022/05/10 03:23:47;;;;;;;15.43;13.03;;;;;;;;;;5075711;28;20474;-71
2022/05/10 03:26:14;;;;;;;15.17;12.67;;;;;;;;;;5075740;28;20504;-64
2022/05/10 03:28:40;;;;;;;15.17;13.07;;;;;;;;;;5075639;28;20931;-65
2022/05/10 03:31:06;;;;;;;12.73;11.30;;;;;;;;;;5075535;28;20408;-64
2022/05/10 03:33:32;;;;;;;13.43;12.03;;;;;;;;;;5075502;28;20409;-64
2022/05/10 03:35:58;;;;;;;14.00;12.43;;;;;;;;;;5075375;28;20517;-64
2022/05/10 03:38:24;;;;;;;15.23;11.97;;;;;;;;;;5057727;28;20427;-64
2022/05/10 03:40:50;;;;;;;16.30;12.23;;;;;;;;;;5075435;28;20906;-64
2022/05/10 03:43:16;;;;;;;14.73;11.33;;;;;;;;;;5075445;28;20405;-64
2022/05/10 03:45:42;;;;;;;13.20;11.80;;;;;;;;;;5075350;28;20419;-68
2022/05/10 03:48:08;;;;;;;15.33;12.80;;;;;;;;;;5075443;28;20405;-65
2022/05/10 03:50:35;;;;;;;12.90;11.70;;;;;;;;;;5075129;28;20431;-70
2022/05/10 03:53:01;;;;;;;14.27;12.77;;;;;;;;;;5075256;28;20433;-63
2022/05/10 03:55:28;;;;;;;21.33;13.17;;;;;;;;;;5075115;28;20416;-67
2022/05/10 03:57:55;;;;;;;13.40;12.00;;;;;;;;;;5075193;28;20515;-65
2022/05/10 04:00:22;;;;;;;15.07;13.47;;;;;;;;;;5075130;28;20396;-69
2022/05/10 04:02:49;;;;;;;15.90;12.93;;;;;;;;;;5075139;28;20458;-70
2022/05/10 04:05:15;;;;;;;15.80;11.27;;;;;;;;;;5075069;28;20906;-67
2022/05/10 04:07:42;;;;;;;13.77;12.30;;;;;;;;;;5074966;28;20453;-67
2022/05/10 04:10:08;;;;;;;14.07;12.60;;;;;;;;;;5074955;28;20400;-64
2022/05/10 04:12:36;;;;;;;15.80;13.00;;;;;;;;;;5073501;28;20467;-65
2022/05/10 04:15:03;;;;;;;13.93;12.17;;;;;;;;;;5074846;28;20404;-71
2022/05/10 04:17:29;;;;;;;14.63;12.77;;;;;;;;;;5074626;28;20479;-64
2022/05/10 04:19:55;;;;;;;13.80;12.40;;;;;;;;;;5074755;28;20417;-67
2022/05/10 04:22:21;;;;;;;14.83;12.80;;;;;;;;;;5074704;28;20416;-63
2022/05/10 04:24:47;;;;;;;13.83;11.90;;;;;;;;;;5056732;28;20415;-65
2022/05/10 04:27:13;;;;;;;14.23;12.73;;;;;;;;;;5074602;28;20424;-64
2022/05/10 04:29:39;;;;;;;14.43;12.23;;;;;;;;;;5074655;28;20408;-65
2022/05/10 04:32:05;;;;;;;14.73;12.10;;;;;;;;;;5074327;28;20420;-64
2022/05/10 04:34:31;;;;;;;16.10;13.07;;;;;;;;;;5074248;28;20912;-64
2022/05/10 04:36:57;;;;;;;13.40;12.10;;;;;;;;;;5074373;28;20456;-64
2022/05/10 04:39:23;;;;;;;15.40;12.43;;;;;;;;;;5074290;28;20437;-64
2022/05/10 04:41:51;;;;;;;14.07;12.57;;;;;;;;;;5074379;28;20474;-65
2022/05/10 04:44:17;;;;;;;15.03;12.50;;;;;;;;;;5056264;28;20411;-67
2022/05/10 04:46:44;;;;;;;14.17;12.27;;;;;;;;;;5074407;28;20550;-69
2022/05/10 04:49:11;;;;;;;14.87;12.97;;;;;;;;;;5074098;28;20898;-68
2022/05/10 04:51:37;;;;;;;16.23;11.67;;;;;;;;;;5056063;28;20409;-67
2022/05/10 04:54:04;;;;;;;13.27;11.37;;;;;;;;;;5073927;28;20397;-68
2022/05/10 04:56:30;;;;;;;12.60;11.40;;;;;;;;;;5073884;28;20943;-64
2022/05/10 04:58:56;;;;;;;14.10;11.73;;;;;;;;;;5073973;28;20520;-68
2022/05/10 05:01:26;;;;;;;14.20;12.50;;;;;;;;;;5073900;28;20511;-69
2022/05/10 05:03:55;;;;;;;12.10;10.90;;;;;;;;;;5055964;28;20746;-68
2022/05/10 05:06:23;;;;;;;13.40;11.47;;;;;;;;;;5073586;28;20443;-70
2022/05/10 05:08:49;;;;;;;12.30;11.00;;;;;;;;;;5073756;28;20420;-67
2022/05/10 05:11:16;;;;;;;15.07;11.53;;;;;;;;;;5073687;28;20417;-69
2022/05/10 05:13:42;;;;;;;12.80;11.20;;;;;;;;;;5073573;28;20451;-67
2022/05/10 05:16:08;;;;;;;16.93;11.73;;;;;;;;;;5073438;28;20472;-63
2022/05/10 05:18:34;;;;;;;13.23;10.83;;;;;;;;;;5073594;28;20400;-64
2022/05/10 05:21:00;;;;;;;13.43;11.23;;;;;;;;;;5073585;28;20780;-65
2022/05/10 05:23:26;;;;;;;13.03;10.47;;;;;;;;;;5073180;28;20993;-64
2022/05/10 05:25:55;;;;;;;13.27;11.87;;;;;;;;;;5073407;28;20872;-69
2022/05/10 05:28:21;;;;;;;11.90;10.80;;;;;;;;;;5073319;28;20934;-67
2022/05/10 05:30:47;;;;;;;13.93;10.53;;;;;;;;;;5073399;28;20405;-68
2022/05/10 05:33:14;;;;;;;13.17;11.30;;;;;;;;;;5073336;28;20889;-69
2022/05/10 05:35:40;;;;;;;14.90;12.23;;;;;;;;;;5073280;28;20868;-69
2022/05/10 05:38:06;;;;;;;14.27;12.57;;;;;;;;;;5073243;28;20899;-66
2022/05/10 05:40:33;;;;;;;13.57;11.50;;;;;;;;;;5073268;28;20405;-70
2022/05/10 05:42:59;;;;;;;14.00;11.97;;;;;;;;;;5073112;28;20508;-65
2022/05/10 05:45:25;;;;;;;15.80;12.23;;;;;;;;;;5073111;28;20610;-68
2022/05/10 05:47:51;;;;;;;15.47;12.20;;;;;;;;;;5072986;28;20883;-64
2022/05/10 05:50:19;;;;;;;18.33;12.13;;;;;;;;;;5072947;28;20404;-65
2022/05/10 05:52:46;;;;;;;13.30;11.70;;;;;;;;;;5073003;28;20879;-69
2022/05/10 05:55:13;;;;;;;17.43;11.07;;;;;;;;;;5073179;28;20413;-68
2022/05/10 05:57:39;;;;;;;12.43;11.17;;;;;;;;;;5054958;28;20468;-64
2022/05/10 06:00:10;;;;;;;13.53;10.57;;;;;;;;;;5072949;28;20415;-64
2022/05/10 06:02:36;;;;;;;13.60;12.03;;;;;;;;;;5072927;28;20436;-65
2022/05/10 06:05:03;;;;;;;15.93;10.60;;;;;;;;;;5072896;28;20774;-68
2022/05/10 06:07:29;;;;;;;14.00;11.37;;;;;;;;;;5072753;28;20951;-66
2022/05/10 06:09:55;;;;;;;13.37;11.83;;;;;;;;;;5072910;28;20396;-68
2022/05/10 06:12:21;;;;;;;15.73;12.37;;;;;;;;;;5072886;28;20496;-69
2022/05/10 06:14:48;;;;;;;14.83;12.37;;;;;;;;;;5072841;28;20437;-67
2022/05/10 06:17:14;;;;;;;12.90;11.70;;;;;;;;;;5072844;28;20472;-67
2022/05/10 06:19:41;;;;;;;16.03;11.67;;;;;;;;;;5072795;28;20420;-65
2022/05/10 06:22:08;;;;;;;16.47;11.80;;;;;;;;;;5072818;28;20467;-67
2022/05/10 06:24:34;;;;;;;16.20;11.47;;;;;;;;;;5072823;28;20401;-65
2022/05/10 06:27:00;;;;;;;14.93;11.20;;;;;;;;;;5054580;28;20424;-64
2022/05/10 06:29:26;;;;;;;13.23;11.67;;;;;;;;;;5072772;28;20437;-65
2022/05/10 06:31:52;;;;;;;15.47;11.83;;;;;;;;;;5072587;28;20923;-67
2022/05/10 06:34:18;;;;;;;15.93;12.07;;;;;;;;;;5072862;28;20499;-64
2022/05/10 06:36:45;;;;;;;12.50;10.77;;;;;;;;;;5058540;28;20475;-69
2022/05/10 06:39:11;;;;;;;14.60;11.40;;;;;;;;;;5076390;28;20409;-67
2022/05/10 06:41:37;;;;;;;13.47;10.87;;;;;;;;;;5076418;28;20460;-68
2022/05/10 06:44:03;;;;;;;12.07;10.87;;;;;;;;;;5076405;28;20440;-66
2022/05/10 06:46:32;;;;;;;13.90;12.37;;;;;;;;;;5076465;28;20400;-66
2022/05/10 06:48:58;;;;;;;13.00;11.13;;;;;;;;;;5076352;28;20736;-64
2022/05/10 06:51:24;;;;;;;12.87;11.40;;;;;;;;;;5076297;28;20953;-64
2022/05/10 06:53:50;;;;;;;12.00;10.80;;;;;;;;;;5076046;28;20424;-64
2022/05/10 06:56:16;;;;;;;13.03;11.60;;;;;;;;;;5076189;28;20475;-65
2022/05/10 06:58:42;;;;;;;11.40;10.30;;;;;;;;;;5076092;28;20443;-67
2022/05/10 07:01:12;;;;;;;15.53;11.20;;;;;;;;;;5076052;28;20395;-66
2022/05/10 07:03:39;;;;;;;12.50;11.20;;;;;;;;;;5075997;28;20413;-64
2022/05/10 07:06:07;;;;;;;14.70;11.87;;;;;;;;;;5075876;28;20416;-65
2022/05/10 07:08:33;;;;;;;11.13;10.13;;;;;;;;;;5076031;28;20965;-65
2022/05/10 07:10:59;;;;;;;11.90;10.70;;;;;;;;;;5075879;28;20413;-64
2022/05/10 07:13:26;;;;;;;11.17;10.07;;;;;;;;;;5075434;28;20523;-63
2022/05/10 07:15:52;;;;;;;11.30;10.10;;;;;;;;;;5075647;28;20475;-70
2022/05/10 07:18:19;;;;;;;12.27;10.70;;;;;;;;;;5075805;28;20802;-64
2022/05/10 07:20:46;;;;;;;13.77;10.80;;;;;;;;;;5075654;28;20927;-65
2022/05/10 07:23:12;;;;;;;11.10;10.10;;;;;;;;;;5075618;28;20439;-65
2022/05/10 07:25:39;;;;;;;10.93;9.83;;;;;;;;;;5075679;28;20393;-64
2022/05/10 07:28:08;;;;;;;9.87;8.97;;;;;;;;;;5075630;28;20930;-68
2022/05/10 07:30:35;;;;;;;11.83;10.63;;;;;;;;;;5075182;28;20420;-66
2022/05/10 07:33:01;;;;;;;11.57;10.37;;;;;;;;;;5075324;28;20393;-65
2022/05/10 07:38:13;;;;;;;11.37;10.13;;;;;;;;;;5075380;28;20445;-64
2022/05/10 07:40:40;;;;;;;10.77;9.67;;;;;;;;;;5057441;28;20490;-63
2022/05/10 07:43:06;;;;;;;10.07;9.13;;;;;;;;;;5074841;28;20772;-63
2022/05/10 07:45:32;;;;;;;11.60;9.00;;;;;;;;;;5075101;28;20401;-64
2022/05/10 07:47:59;;;;;;;11.20;9.57;;;;;;;;;;5075083;28;20895;-63
2022/05/10 07:50:25;;;;;;;10.43;9.33;;;;;;;;;;5075200;28;20412;-64
2022/05/10 07:52:51;;;;;;;10.97;9.97;;;;;;;;;;5074866;28;20761;-64
2022/05/10 07:55:18;;;;;;;10.20;9.20;;;;;;;;;;5075039;28;20407;-64
2022/05/10 07:57:44;;;;;;;10.07;9.17;;;;;;;;;;5074965;28;20479;-64
2022/05/10 08:00:12;;;;;;;16.50;9.70;;;;;;;;;;5075050;28;20404;-65
2022/05/10 08:02:42;;;;;;;9.80;8.90;;;;;;;;;;5074858;28;20419;-66
2022/05/10 08:05:08;;;;;;;10.13;8.93;;;;;;;;;;5074866;28;20907;-67
2022/05/10 08:07:34;;;;;;;10.60;8.93;;;;;;;;;;5074567;28;20448;-66
2022/05/10 08:10:00;;;;;;;10.00;8.97;;;;;;;;;;5074767;28;20416;-63
2022/05/10 08:12:26;;;;;;;9.40;8.60;;;;;;;;;;5074505;28;20424;-64
2022/05/10 08:14:52;;;;;;;8.57;7.77;;;;;;;;;;5074547;28;20411;-65
2022/05/10 08:17:18;;;;;;;9.10;8.17;;;;;;;;;;5074119;28;20464;-66
2022/05/10 08:19:45;;;;;;;8.97;8.20;;;;;;;;;;5074165;28;20448;-64
2022/05/10 08:22:11;;;;;;;10.40;9.40;;;;;;;;;;5074217;28;20444;-65
2022/05/10 08:24:37;;;;;;;10.03;9.10;;;;;;;;;;5074020;28;20413;-63
2022/05/10 08:27:03;;;;;;;9.23;8.43;;;;;;;;;;5074141;28;20437;-64
2022/05/10 08:29:29;;;;;;;9.63;8.73;;;;;;;;;;5055763;28;20454;-64
2022/05/10 08:31:55;;;;;;;9.33;8.53;;;;;;;;;;5073525;28;20748;-64
2022/05/10 08:34:21;;;;;;;9.00;8.20;;;;;;;;;;5073547;28;20776;-66
2022/05/10 08:36:47;;;;;;;11.23;8.90;;;;;;;;;;5073893;28;20853;-64
2022/05/10 08:39:14;;;;;;;9.37;8.50;;;;;;;;;;5073444;28;20931;-64
2022/05/10 08:41:49;;;;;;;10.00;8.90;;;;;;;;;;5073396;28;20405;-64
2022/05/10 08:44:15;;;;;;;9.83;8.83;;;;;;;;;;5074023;28;20473;-64
2022/05/10 08:46:43;;;;;;;8.27;7.57;;;;;;;;;;5055990;28;20478;-64
2022/05/10 08:49:32;;;;;;;8.93;8.07;;;;;;;;;;5073894;28;20486;-65
2022/05/10 08:51:58;;;;;;;8.70;8.00;;;;;;;;;;5045586;28;20934;-65
2022/05/10 08:54:25;;;;;;;9.70;8.80;;;;;;;;;;5073880;28;20472;-66
2022/05/10 08:56:53;;;;;;;9.80;8.97;;;;;;;;;;5073238;28;20471;-65
2022/05/10 08:59:38;;;;;;;8.53;7.83;;;;;;;;;;5073396;28;20405;-67
2022/05/10 09:02:24;;;;;;;8.87;8.07;;;;;;;;;;5073543;28;20503;-67
2022/05/10 09:04:54;;;;;;;11.27;8.80;;;;;;;;;;5059626;28;20423;-66
2022/05/10 09:07:33;;;;;;;8.77;8.07;;;;;;;;;;5073368;28;20464;-64
2022/05/10 09:10:19;;;;;;;9.20;8.40;;;;;;;;;;5073433;28;20401;-68
2022/05/10 09:12:48;;;;;;;9.03;8.17;;;;;;;;;;5073256;28;20385;-66
2022/05/10 09:15:14;;;;;;;9.97;8.00;;;;;;;;;;5055304;28;20820;-66
2022/05/10 09:17:40;;;;;;;8.47;7.77;;;;;;;;;;5073152;28;20985;-64
2022/05/10 09:20:08;;;;;;;9.80;8.83;;;;;;;;;;5073421;28;20585;-65
2022/05/10 09:22:34;;;;;;;9.03;8.33;;;;;;;;;;5073371;28;20401;-65
2022/05/10 09:25:00;;;;;;;8.17;7.37;;;;;;;;;;5073269;28;20757;-65
2022/05/10 09:27:31;;;;;;;9.33;8.50;;;;;;;;;;5073381;28;20448;-65
2022/05/10 09:29:58;;;;;;;9.03;8.00;;;;;;;;;;5073315;28;20393;-64
2022/05/10 09:35:15;;;;;;;8.70;7.77;;;;;;;;;;5073561;28;20941;-67
2022/05/10 09:37:53;;;;;;;8.30;7.40;;;;;;;;;;5073206;28;20471;-65
2022/05/10 09:40:35;;;;;;;8.20;7.50;;;;;;;;;;5072969;28;20413;-67
2022/05/10 09:43:17;;;;;;;8.67;7.90;;;;;;;;;;5073037;28;20478;-65
2022/05/10 09:45:44;;;;;;;9.40;8.60;;;;;;;;;;5073119;28;20408;-64
2022/05/10 09:48:11;;;;;;;8.30;7.40;;;;;;;;;;5073086;28;20462;-64
2022/05/10 09:50:42;;;;;;;7.90;7.30;;;;;;;;;;5073215;28;20499;-63
2022/05/10 09:53:08;;;;;;;8.57;7.77;;;;;;;;;;5054978;28;20489;-68
2022/05/10 09:55:34;;;;;;;8.07;7.47;;;;;;;;;;5072861;28;20559;-72
2022/05/10 09:58:12;;;;;;;8.90;6.90;;;;;;;;;;5072840;28;20516;-66
2022/05/10 10:00:43;;;;;;;7.80;7.10;;;;;;;;;;5073016;28;20413;-64
2022/05/10 10:03:09;;;;;;;7.87;7.13;;;;;;;;;;5072950;28;20935;-66
2022/05/10 10:05:36;;;;;;;8.30;7.50;;;;;;;;;;5072883;28;20452;-63
2022/05/10 10:08:03;;;;;;;8.17;7.47;;;;;;;;;;5084656;28;20818;-63
2022/05/10 10:10:29;;;;;;;7.90;7.10;;;;;;;;;;5097350;28;20404;-63
2022/05/10 10:12:55;;;;;;;7.57;6.90;;;;;;;;;;5097324;28;20399;-68
2022/05/10 10:15:24;;;;;;;7.47;6.97;;;;;;;;;;5097180;28;20400;-65
2022/05/10 10:17:53;;;;;;;6.87;6.27;;;;;;;;;;5097091;28;20479;-67
2022/05/10 10:20:22;;;;;;;7.10;6.40;;;;;;;;;;5097120;28;20411;-64
2022/05/10 10:22:49;;;;;;;7.73;7.03;;;;;;;;;;5097072;28;20410;-63
2022/05/10 10:25:24;;;;;;;7.53;6.80;;;;;;;;;;5097123;28;20407;-67
2022/05/10 10:28:10;;;;;;;7.30;6.70;;;;;;;;;;5096963;28;20509;-69
2022/05/10 10:30:38;;;;;;;7.93;7.23;;;;;;;;;;5086365;28;20968;-67
2022/05/10 10:33:25;;;;;;;8.33;7.60;;;;;;;;;;5096818;28;20901;-67
2022/05/10 10:35:56;;;;;;;6.60;5.93;;;;;;;;;;5096641;28;20411;-67
2022/05/10 10:38:22;;;;;;;7.33;6.73;;;;;;;;;;5096950;28;20809;-65
2022/05/10 10:40:54;;;;;;;8.30;7.10;;;;;;;;;;5095497;28;20518;-70
2022/05/10 10:43:28;;;;;;;6.80;6.20;;;;;;;;;;5095635;28;20418;-68
2022/05/10 10:46:13;;;;;;;7.20;6.60;;;;;;;;;;5096748;28;20895;-66
2022/05/10 10:49:05;;;;;;;6.87;6.30;;;;;;;;;;5096551;28;20413;-65
2022/05/10 10:51:32;;;;;;;6.73;6.17;;;;;;;;;;5093820;28;20444;-65
2022/05/10 10:53:59;;;;;;;7.90;6.90;;;;;;;;;;5096483;28;20438;-70
2022/05/10 10:56:43;;;;;;;7.03;6.43;;;;;;;;;;5096429;28;20465;-65
2022/05/10 10:59:18;;;;;;;7.30;6.50;;;;;;;;;;5096433;28;20399;-67
2022/05/10 11:02:03;;;;;;;7.17;6.53;;;;;;;;;;5096334;28;20490;-67
2022/05/10 11:04:48;;;;;;;7.50;7.00;;;;;;;;;;5096362;28;20426;-67
2022/05/10 11:07:29;;;;;;;7.17;6.57;;;;;;;;;;5086077;28;20873;-66
2022/05/10 11:10:01;;;;;;;7.33;6.60;;;;;;;;;;5076026;28;20391;-66
2022/05/10 11:12:38;;;;;;;8.30;6.77;;;;;;;;;;5075807;28;20400;-65
2022/05/10 11:15:23;;;;;;;7.53;6.67;;;;;;;;;;5075888;28;20749;-65
2022/05/10 11:17:49;;;;;;;6.47;5.90;;;;;;;;;;5075697;28;20467;-64
2022/05/10 11:20:35;;;;;;;6.50;6.00;;;;;;;;;;5075212;28;20402;-64
2022/05/10 11:23:08;;;;;;;6.90;6.40;;;;;;;;;;5075569;28;20470;-65
2022/05/10 11:25:40;;;;;;;7.50;6.90;;;;;;;;;;5057890;28;20416;-64
2022/05/10 11:28:09;;;;;;;7.20;6.60;;;;;;;;;;5075575;28;20543;-64
2022/05/10 11:30:44;;;;;;;6.87;6.27;;;;;;;;;;5057763;28;20463;-67
2022/05/10 11:33:19;;;;;;;5.73;5.30;;;;;;;;;;5075433;28;20435;-65
2022/05/10 11:35:45;;;;;;;6.70;5.90;;;;;;;;;;5075561;28;20408;-64
2022/05/10 11:38:11;;;;;;;6.70;5.83;;;;;;;;;;5075432;28;20486;-67
2022/05/10 11:40:45;;;;;;;5.80;5.40;;;;;;;;;;5075393;28;20496;-68
2022/05/10 11:43:36;;;;;;;6.20;5.70;;;;;;;;;;5075204;28;20427;-65
2022/05/10 11:46:15;;;;;;;9.10;6.10;;;;;;;;;;5075395;28;20401;-66
2022/05/10 11:48:41;;;;;;;5.93;5.53;;;;;;;;;;5075376;28;20393;-66
2022/05/10 11:51:39;;;;;;;6.60;6.00;;;;;;;;;;5075220;28;20419;-64
2022/05/10 11:54:09;;;;;;;6.87;5.90;;;;;;;;;;5075044;28;20428;-68
2022/05/10 11:56:36;;;;;;;6.40;5.90;;;;;;;;;;5075099;28;20468;-67
2022/05/10 11:59:09;;;;;;;6.47;5.97;;;;;;;;;;5075007;28;20478;-65
2022/05/10 12:01:44;;;;;;;6.50;5.77;;;;;;;;;;5074998;28;20424;-66
2022/05/10 12:04:29;;;;;;;5.20;4.70;;;;;;;;;;5075017;28;20902;-65
2022/05/10 12:06:55;;;;;;;6.27;5.77;;;;;;;;;;5074780;28;20489;-65
2022/05/10 12:09:40;;;;;;;6.20;5.60;;;;;;;;;;5074917;28;20500;-69
2022/05/10 12:12:06;;;;;;;5.50;5.10;;;;;;;;;;5074771;28;20411;-64
2022/05/10 12:23:18;;;;;;;5.60;5.20;;;;;;;;;;5075031;28;20442;-64
2022/05/10 12:25:53;;;;;;;6.63;6.10;;;;;;;;;;5074540;28;20405;-65
2022/05/10 12:28:38;;;;;;;6.77;5.87;;;;;;;;;;5074356;28;20428;-65
2022/05/10 12:31:23;;;;;;;5.40;5.07;;;;;;;;;;5074596;28;20412;-65
2022/05/10 12:34:02;;;;;;;5.97;5.47;;;;;;;;;;5073416;28;20954;-64
2022/05/10 12:36:31;;;;;;;5.90;5.50;;;;;;;;;;5074238;28;20539;-65
2022/05/10 12:38:57;;;;;;;6.37;5.87;;;;;;;;;;5074298;28;20412;-65
2022/05/10 12:41:35;;;;;;;5.50;5.10;;;;;;;;;;5074223;28;20421;-64
2022/05/10 12:44:09;;;;;;;6.07;5.57;;;;;;;;;;5074237;28;20400;-65
2022/05/10 12:46:40;;;;;;;6.83;6.33;;;;;;;;;;5074147;28;20955;-65
2022/05/10 12:49:19;;;;;;;6.23;5.73;;;;;;;;;;5074010;28;20409;-67
2022/05/10 12:52:00;;;;;;;5.90;5.50;;;;;;;;;;5073971;28;20454;-65
2022/05/10 12:54:27;;;;;;;6.30;5.70;;;;;;;;;;5055862;28;20427;-64
2022/05/10 12:57:19;;;;;;;6.43;5.90;;;;;;;;;;5073564;28;20854;-72
2022/05/10 13:00:03;;;;;;;6.00;5.57;;;;;;;;;;5070193;28;20408;-65
2022/05/10 13:02:30;;;;;;;6.63;5.70;;;;;;;;;;5073818;28;20409;-64
2022/05/10 13:05:00;;;;;;;8.63;6.60;;;;;;;;;;5073745;28;20405;-65
2022/05/10 13:07:35;;;;;;;6.30;5.80;;;;;;;;;;5073417;28;20472;-63
2022/05/10 13:10:04;;;;;;;6.53;5.93;;;;;;;;;;5073587;28;20395;-66
2022/05/10 13:12:34;;;;;;;8.03;6.50;;;;;;;;;;5073454;28;20401;-64
2022/05/10 13:15:03;;;;;;;5.30;4.93;;;;;;;;;;5073834;28;20397;-69
2022/05/10 13:17:30;;;;;;;5.67;5.03;;;;;;;;;;5073533;28;20464;-65
2022/05/10 13:19:57;;;;;;;6.17;5.70;;;;;;;;;;5073355;28;20420;-63
2022/05/10 13:22:25;;;;;;;5.50;5.10;;;;;;;;;;5073461;28;20527;-68
2022/05/10 13:24:52;;;;;;;6.67;5.40;;;;;;;;;;5073403;28;20879;-65
2022/05/10 13:27:28;;;;;;;5.70;5.20;;;;;;;;;;5055392;28;20946;-66
2022/05/10 13:29:56;;;;;;;7.87;5.70;;;;;;;;;;5073356;28;20521;-69
2022/05/10 13:32:30;;;;;;;6.30;5.80;;;;;;;;;;5073333;28;20417;-66
2022/05/10 13:35:01;;;;;;;6.27;5.77;;;;;;;;;;5073310;28;20972;-67
2022/05/10 13:37:29;;;;;;;7.10;6.60;;;;;;;;;;5073274;28;20556;-65
2022/05/10 13:39:57;;;;;;;9.40;6.03;;;;;;;;;;5073156;28;20436;-65
2022/05/10 13:42:23;;;;;;;6.70;6.20;;;;;;;;;;5073189;28;20446;-67
2022/05/10 13:44:49;;;;;;;6.80;6.20;;;;;;;;;;5072910;28;20903;-66
2022/05/10 13:47:23;;;;;;;6.60;6.07;;;;;;;;;;5073132;28;20404;-67
2022/05/10 13:49:49;;;;;;;6.77;6.27;;;;;;;;;;5073119;28;20396;-68
2022/05/10 13:52:27;;;;;;;6.43;5.73;;;;;;;;;;5073085;28;20412;-69
2022/05/10 13:54:55;;;;;;;8.40;6.03;;;;;;;;;;5073035;28;20393;-67
2022/05/10 13:57:25;;;;;;;6.10;5.70;;;;;;;;;;5073060;28;20471;-66
2022/05/10 13:59:52;;;;;;;6.53;6.00;;;;;;;;;;5073047;28;20409;-70
2022/05/10 14:02:21;;;;;;;6.60;6.10;;;;;;;;;;5072870;28;20914;-65
2022/05/10 14:04:48;;;;;;;7.50;6.17;;;;;;;;;;5073076;28;20462;-66
2022/05/10 14:07:24;;;;;;;6.20;5.70;;;;;;;;;;5072813;28;20546;-65
2022/05/10 14:09:53;;;;;;;6.33;5.83;;;;;;;;;;5072963;28;20458;-66
2022/05/10 14:12:27;;;;;;;6.80;6.27;;;;;;;;;;5072871;28;20988;-64
2022/05/10 14:14:54;;;;;;;7.27;6.50;;;;;;;;;;5072915;28;20404;-70
2022/05/10 14:17:20;;;;;;;6.83;6.33;;;;;;;;;;5072981;28;20963;-67
2022/05/10 14:19:47;;;;;;;7.13;6.43;;;;;;;;;;5072847;28;20404;-63
2022/05/10 14:22:19;;;;;;;6.80;6.27;;;;;;;;;;5072808;28;20425;-66
2022/05/10 14:24:45;;;;;;;6.50;6.00;;;;;;;;;;5072784;28;20538;-66
2022/05/10 14:27:21;;;;;;;8.07;6.80;;;;;;;;;;5054753;28;20441;-64
2022/05/10 14:29:49;;;;;;;7.60;6.90;;;;;;;;;;5072864;28;20400;-64
2022/05/10 14:32:29;;;;;;;7.63;6.93;;;;;;;;;;5072594;28;20904;-69
2022/05/10 14:34:58;;;;;;;6.83;6.33;;;;;;;;;;5072744;28;20424;-65
2022/05/10 14:37:28;;;;;;;6.37;5.97;;;;;;;;;;5072644;28;20975;-65
2022/05/10 14:39:55;;;;;;;6.67;6.07;;;;;;;;;;5072663;28;20403;-64
2022/05/10 14:42:40;;;;;;;6.70;5.47;;;;;;;;;;5072726;28;20790;-64
2022/05/10 14:45:14;;;;;;;8.03;6.17;;;;;;;;;;5072716;28;20399;-64
2022/05/10 14:47:40;;;;;;;6.90;6.20;;;;;;;;;;5072595;28;20420;-64
2022/05/10 14:50:06;;;;;;;7.23;6.57;;;;;;;;;;5072539;28;20400;-71
2022/05/10 14:52:34;;;;;;;6.63;6.03;;;;;;;;;;5054531;28;20451;-65
2022/05/10 14:55:01;;;;;;;12.07;10.83;;;;;;;;;;5072641;28;20416;-66
2022/05/10 14:57:48;;;;;;;8.73;7.80;;;;;;;;;;5075970;28;20839;-65
2022/05/10 15:00:44;;;;;;;7.07;6.47;;;;;;;;;;5076127;28;20495;-66